Time;durP1;ratioP1;P1;durP2;ratioP2;P2;SDS_P1;SDS_P2;PMS_P1;PMS_P2;Temp;Humidity;BMP_temperature;BMP_pressure;BME280_temperature;BME280_humidity;BME280_pressure;Samples;Min_cycle;Max_cycle;Signal;HPM_P1;HPM_P2
2020/12/31 00:01:30;;;;;;;61.97;42.75;;;282.10;2252.80;;;;;;5074149;28;20063;-58
2020/12/31 00:03:56;;;;;;;63.92;43.50;;;282.30;2252.80;;;;;;5074195;28;20020;-58
2020/12/31 00:06:22;;;;;;;64.32;42.88;;;282.30;2252.80;;;;;;5073626;28;20048;-58
2020/12/31 00:08:48;;;;;;;67.47;41.58;;;282.40;2252.80;;;;;;5074409;28;20028;-57
2020/12/31 00:11:14;;;;;;;66.88;42.75;;;282.30;2252.80;;;;;;5073108;28;20032;-58
2020/12/31 00:13:40;;;;;;;61.50;39.60;;;282.30;2252.80;;;;;;5073644;28;20024;-58
2020/12/31 00:16:06;;;;;;;63.55;40.78;;;282.40;2252.80;;;;;;5073877;28;20029;-58
2020/12/31 00:18:32;;;;;;;57.95;39.80;;;282.30;2252.80;;;;;;5073451;28;20081;-58
2020/12/31 00:20:58;;;;;;;53.13;37.03;;;282.10;2278.40;;;;;;5073350;28;20024;-55
2020/12/31 00:23:24;;;;;;;56.80;36.33;;;282.10;2278.40;;;;;;5073698;28;20071;-55
2020/12/31 00:25:52;;;;;;;62.90;39.00;;;282.10;2278.40;;;;;;5073646;28;20052;-55
2020/12/31 00:28:22;;;;;;;55.90;38.28;;;282.10;2278.40;;;;;;5073131;28;20116;-58
2020/12/31 00:30:49;;;;;;;64.10;40.15;;;282.30;2278.40;;;;;;5072407;28;20032;-57
2020/12/31 00:33:16;;;;;;;60.42;39.90;;;282.30;2252.80;;;;;;5073227;28;20052;-57
2020/12/31 00:35:43;;;;;;;60.35;40.30;;;282.20;2278.40;;;;;;5069908;28;20017;-57
2020/12/31 00:38:09;;;;;;;61.60;40.10;;;282.30;2252.80;;;;;;5071824;28;20028;-58
2020/12/31 00:40:35;;;;;;;65.40;41.60;;;282.30;2278.40;;;;;;5073370;28;20032;-61
2020/12/31 00:43:01;;;;;;;65.20;41.65;;;282.30;2278.40;;;;;;5064793;28;20016;-56
2020/12/31 00:45:27;;;;;;;64.38;41.72;;;282.30;2252.80;;;;;;5073266;28;20043;-57
2020/12/31 00:47:53;;;;;;;61.90;40.22;;;282.10;2278.40;;;;;;5072970;28;20037;-57
2020/12/31 00:50:22;;;;;;;60.10;38.85;;;282.20;2278.40;;;;;;5073202;28;20020;-56
2020/12/31 00:52:48;;;;;;;59.05;37.50;;;282.20;2278.40;;;;;;5071123;28;20020;-54
2020/12/31 00:55:14;;;;;;;68.65;43.60;;;282.20;2278.40;;;;;;5072868;28;20390;-53
2020/12/31 00:57:39;;;;;;;63.72;40.05;;;282.30;2278.40;;;;;;5071003;28;20020;-54
2020/12/31 01:00:06;;;;;;;62.58;38.80;;;282.30;2278.40;;;;;;5070426;28;21236;-55
2020/12/31 01:02:31;;;;;;;65.10;41.35;;;282.20;2278.40;;;;;;5071733;28;20532;-54
2020/12/31 01:04:57;;;;;;;59.20;39.75;;;282.10;2278.40;;;;;;5072447;28;20024;-54
2020/12/31 01:07:22;;;;;;;61.55;38.78;;;282.20;2278.40;;;;;;5071653;28;20045;-54
2020/12/31 01:09:48;;;;;;;57.90;38.08;;;282.20;2278.40;;;;;;5071148;28;20020;-56
2020/12/31 01:12:14;;;;;;;54.78;35.47;;;282.20;2278.40;;;;;;5071523;28;20554;-54
2020/12/31 01:14:39;;;;;;;56.45;36.38;;;282.20;2278.40;;;;;;5070700;28;20486;-55
2020/12/31 01:17:05;;;;;;;61.30;38.72;;;282.20;2252.80;;;;;;5071511;28;20327;-54
2020/12/31 01:19:31;;;;;;;57.72;36.45;;;282.30;2252.80;;;;;;5071930;28;20086;-55
2020/12/31 01:21:56;;;;;;;53.15;37.95;;;282.20;2252.80;;;;;;5072190;28;20104;-54
2020/12/31 01:24:22;;;;;;;60.58;36.97;;;282.20;2278.40;;;;;;5073166;28;20020;-54
2020/12/31 01:26:48;;;;;;;61.67;38.75;;;282.10;2278.40;;;;;;5072087;28;20082;-55
2020/12/31 01:29:13;;;;;;;66.70;40.90;;;282.00;2278.40;;;;;;5072308;28;20028;-55
2020/12/31 01:31:39;;;;;;;65.78;42.25;;;282.10;2278.40;;;;;;5072465;28;20052;-55
2020/12/31 01:34:07;;;;;;;69.65;41.60;;;282.00;2278.40;;;;;;5072481;28;20029;-54
2020/12/31 01:36:36;;;;;;;73.72;42.00;;;282.10;2278.40;;;;;;5072460;28;20036;-54
2020/12/31 01:39:01;;;;;;;67.32;40.92;;;281.80;2278.40;;;;;;5071969;28;20154;-55
2020/12/31 01:41:27;;;;;;;71.60;43.38;;;281.90;2278.40;;;;;;5070595;28;20092;-54
2020/12/31 01:44:03;;;;;;;71.45;43.97;;;282.10;2278.40;;;;;;5072688;28;20035;-54
2020/12/31 01:46:32;;;;;;;72.53;44.15;;;282.10;2278.40;;;;;;5072298;28;20036;-56
2020/12/31 01:48:59;;;;;;;78.90;45.78;;;282.10;2278.40;;;;;;5072250;28;20028;-54
2020/12/31 01:51:25;;;;;;;78.28;47.72;;;282.00;2278.40;;;;;;5072321;28;20037;-53
2020/12/31 01:53:56;;;;;;;81.90;48.67;;;282.10;2278.40;;;;;;5072817;28;20113;-54
2020/12/31 01:56:34;;;;;;;80.45;47.88;;;282.00;2278.40;;;;;;5072116;28;20482;-55
2020/12/31 01:59:00;;;;;;;83.80;48.55;;;281.90;2278.40;;;;;;5072096;28;20020;-55
2020/12/31 02:01:27;;;;;;;84.68;47.88;;;282.00;2278.40;;;;;;5072128;28;20382;-54
2020/12/31 02:03:54;;;;;;;80.28;48.55;;;282.00;2278.40;;;;;;5072513;28;20027;-54
2020/12/31 02:06:22;;;;;;;82.85;49.20;;;282.10;2278.40;;;;;;5071639;28;20428;-54
2020/12/31 02:08:48;;;;;;;78.60;48.55;;;282.00;2278.40;;;;;;5072719;28;20031;-55
2020/12/31 02:11:16;;;;;;;75.97;46.63;;;282.10;2278.40;;;;;;5072441;28;20025;-54
2020/12/31 02:13:42;;;;;;;77.85;46.15;;;282.10;2278.40;;;;;;5072073;28;20063;-54
2020/12/31 02:16:16;;;;;;;65.45;44.13;;;282.10;2278.40;;;;;;5072290;28;20531;-54
2020/12/31 02:18:51;;;;;;;75.90;43.90;;;282.10;2278.40;;;;;;5058676;28;20029;-53
2020/12/31 02:21:18;;;;;;;67.35;42.13;;;281.90;2278.40;;;;;;5072179;28;20025;-55
2020/12/31 02:23:44;;;;;;;63.55;40.92;;;281.80;2278.40;;;;;;5072150;28;20421;-54
2020/12/31 02:26:10;;;;;;;71.53;42.33;;;282.00;2278.40;;;;;;5072200;28;20028;-54
2020/12/31 02:28:36;;;;;;;60.28;39.95;;;281.90;2278.40;;;;;;5053652;28;20025;-54
2020/12/31 02:31:01;;;;;;;65.63;40.35;;;281.80;2278.40;;;;;;5072246;28;20109;-54
2020/12/31 02:33:27;;;;;;;61.38;39.28;;;281.80;2278.40;;;;;;5071798;28;20032;-55
2020/12/31 02:35:53;;;;;;;67.30;42.38;;;281.90;2278.40;;;;;;5072197;28;20153;-55
2020/12/31 02:38:18;;;;;;;67.38;40.08;;;281.90;2278.40;;;;;;5071879;28;20053;-54
2020/12/31 02:40:44;;;;;;;63.10;40.47;;;282.00;2278.40;;;;;;5072082;28;20035;-55
2020/12/31 02:43:09;;;;;;;63.30;40.33;;;282.00;2278.40;;;;;;5071700;28;20066;-54
2020/12/31 02:45:35;;;;;;;67.95;41.75;;;281.90;2278.40;;;;;;5071879;28;20097;-55
2020/12/31 02:48:01;;;;;;;63.05;38.15;;;281.80;2278.40;;;;;;5071723;28;20175;-54
2020/12/31 02:50:26;;;;;;;61.95;40.20;;;281.90;2278.40;;;;;;5071486;28;20052;-55
2020/12/31 02:52:52;;;;;;;60.88;39.88;;;281.90;2278.40;;;;;;5072102;28;20028;-54
2020/12/31 02:55:18;;;;;;;65.03;39.42;;;281.90;2278.40;;;;;;5075436;28;20024;-54
2020/12/31 02:57:43;;;;;;;67.38;42.70;;;282.00;2278.40;;;;;;5074971;28;20020;-54
2020/12/31 03:00:09;;;;;;;60.83;38.90;;;281.90;2278.40;;;;;;5075330;28;20016;-54
2020/12/31 03:02:34;;;;;;;55.35;37.78;;;281.90;2278.40;;;;;;5075088;28;20039;-55
2020/12/31 03:05:00;;;;;;;58.70;39.55;;;281.90;2278.40;;;;;;5075444;28;20020;-55
2020/12/31 03:07:26;;;;;;;59.67;38.65;;;281.90;2278.40;;;;;;5069467;28;20044;-55
2020/12/31 03:09:51;;;;;;;62.45;39.00;;;281.90;2278.40;;;;;;5075304;28;20405;-55
2020/12/31 03:12:17;;;;;;;60.20;40.47;;;281.90;2278.40;;;;;;5074921;28;20028;-54
2020/12/31 03:14:43;;;;;;;59.08;39.28;;;281.90;2278.40;;;;;;5075004;28;20015;-54
2020/12/31 03:17:08;;;;;;;66.75;39.60;;;281.90;2278.40;;;;;;5074993;28;20100;-55
2020/12/31 03:19:34;;;;;;;55.17;38.03;;;281.90;2278.40;;;;;;5074957;28;20025;-54
2020/12/31 03:22:00;;;;;;;56.17;37.80;;;281.90;2278.40;;;;;;5074885;28;20060;-54
2020/12/31 03:24:25;;;;;;;58.25;38.85;;;281.80;2278.40;;;;;;5074903;28;20419;-54
2020/12/31 03:26:51;;;;;;;61.55;38.83;;;281.90;2278.40;;;;;;5074813;28;20078;-54
2020/12/31 03:29:17;;;;;;;62.47;41.88;;;281.90;2278.40;;;;;;5074713;28;20025;-54
2020/12/31 03:31:42;;;;;;;60.75;40.08;;;281.90;2278.40;;;;;;5073334;28;20020;-54
2020/12/31 03:34:08;;;;;;;60.45;40.15;;;281.80;2278.40;;;;;;5074731;28;20044;-55
2020/12/31 03:36:34;;;;;;;57.80;38.50;;;281.80;2278.40;;;;;;5074728;28;20576;-54
2020/12/31 03:38:59;;;;;;;61.08;39.50;;;281.80;2278.40;;;;;;5074734;28;20028;-54
2020/12/31 03:41:25;;;;;;;59.38;40.80;;;281.90;2278.40;;;;;;5074505;28;20028;-54
2020/12/31 03:43:50;;;;;;;63.88;41.80;;;282.00;2278.40;;;;;;5074275;28;20020;-55
2020/12/31 03:46:16;;;;;;;67.03;44.72;;;281.60;2278.40;;;;;;5074442;28;20028;-54
2020/12/31 03:48:42;;;;;;;70.15;43.42;;;256.90;2252.80;;;;;;5074746;28;20099;-54
2020/12/31 03:51:07;;;;;;;66.38;43.55;;;256.80;2252.80;;;;;;5074431;28;20021;-53
2020/12/31 03:53:33;;;;;;;71.68;43.97;;;256.90;2252.80;;;;;;5074214;28;20025;-54
2020/12/31 03:55:59;;;;;;;64.93;42.75;;;256.90;2252.80;;;;;;5074413;28;20118;-54
2020/12/31 03:58:24;;;;;;;71.53;41.90;;;256.90;2252.80;;;;;;5074325;28;20024;-54
2020/12/31 04:00:50;;;;;;;66.63;43.45;;;256.90;2252.80;;;;;;5074005;28;20031;-54
2020/12/31 04:03:15;;;;;;;68.28;43.15;;;281.60;2278.40;;;;;;5074043;28;20025;-54
2020/12/31 04:05:41;;;;;;;71.80;45.78;;;256.90;2252.80;;;;;;5073957;28;20127;-54
2020/12/31 04:08:07;;;;;;;69.35;43.95;;;281.60;2278.40;;;;;;5074134;28;20124;-54
2020/12/31 04:10:32;;;;;;;68.20;44.33;;;281.60;2278.40;;;;;;5073045;28;20016;-54
2020/12/31 04:12:58;;;;;;;63.50;42.70;;;281.60;2278.40;;;;;;5073569;28;21411;-54
2020/12/31 04:15:24;;;;;;;67.68;43.90;;;281.70;2278.40;;;;;;5073647;28;20107;-54
2020/12/31 04:17:49;;;;;;;64.70;43.33;;;281.60;2278.40;;;;;;5073637;28;20458;-54
2020/12/31 04:20:15;;;;;;;69.75;44.05;;;256.90;2252.80;;;;;;5074033;28;20032;-54
2020/12/31 04:22:41;;;;;;;68.70;44.35;;;256.50;2252.80;;;;;;5073418;28;20355;-54
2020/12/31 04:25:06;;;;;;;68.68;45.35;;;256.60;2252.80;;;;;;5073501;28;20040;-54
2020/12/31 04:27:32;;;;;;;72.20;46.05;;;256.60;2252.80;;;;;;5073349;28;20033;-54
2020/12/31 04:29:58;;;;;;;70.05;43.90;;;256.70;2252.80;;;;;;5073406;28;20025;-54
2020/12/31 04:32:23;;;;;;;71.25;46.17;;;256.80;2252.80;;;;;;5073274;28;20095;-54
2020/12/31 04:34:49;;;;;;;77.60;47.42;;;256.80;2252.80;;;;;;5073369;28;20021;-55
2020/12/31 04:37:15;;;;;;;76.82;48.08;;;256.40;2252.80;;;;;;5072028;28;20489;-54
2020/12/31 04:39:40;;;;;;;72.35;47.22;;;256.50;2252.80;;;;;;5073905;28;20012;-56
2020/12/31 04:42:06;;;;;;;66.55;43.28;;;256.70;2252.80;;;;;;5072883;28;20048;-55
2020/12/31 04:44:33;;;;;;;69.60;44.72;;;256.90;2252.80;;;;;;5073703;28;20024;-55
2020/12/31 04:47:03;;;;;;;74.28;49.63;;;281.70;2278.40;;;;;;5073020;28;20024;-54
2020/12/31 04:49:42;;;;;;;73.60;47.58;;;281.60;2278.40;;;;;;5073107;28;20103;-55
2020/12/31 04:52:07;;;;;;;76.60;49.80;;;281.60;2278.40;;;;;;5072965;28;20033;-55
2020/12/31 04:54:39;;;;;;;73.47;46.63;;;281.60;2278.40;;;;;;5073224;28;20033;-55
2020/12/31 04:57:05;;;;;;;71.25;47.92;;;281.70;2278.40;;;;;;5073083;28;20028;-55
2020/12/31 04:59:31;;;;;;;69.93;46.88;;;281.80;2252.80;;;;;;5072912;28;20489;-55
2020/12/31 05:01:57;;;;;;;69.22;45.40;;;281.60;2278.40;;;;;;5072628;28;20033;-55
2020/12/31 05:04:23;;;;;;;73.43;47.05;;;281.60;2278.40;;;;;;5072959;28;20367;-55
2020/12/31 05:06:52;;;;;;;78.30;50.03;;;281.60;2278.40;;;;;;5072657;28;20048;-55
2020/12/31 05:09:20;;;;;;;75.20;47.92;;;281.70;2278.40;;;;;;5072916;28;20021;-55
2020/12/31 05:11:47;;;;;;;78.03;49.42;;;281.60;2278.40;;;;;;5072359;28;20060;-54
2020/12/31 05:14:43;;;;;;;77.65;50.83;;;281.70;2278.40;;;;;;5072948;28;20044;-55
2020/12/31 05:17:17;;;;;;;87.72;52.80;;;281.70;2278.40;;;;;;5072579;28;20032;-55
2020/12/31 05:19:43;;;;;;;78.40;51.58;;;256.70;2252.80;;;;;;5072618;28;20036;-55
2020/12/31 05:22:21;;;;;;;334.25;251.10;;;256.70;2252.80;;;;;;5072695;28;20032;-55
2020/12/31 05:24:48;;;;;;;109.85;80.72;;;256.60;2252.80;;;;;;5073071;28;20032;-55
2020/12/31 05:27:28;;;;;;;195.05;165.35;;;256.70;2252.80;;;;;;5072372;28;20052;-55
2020/12/31 05:30:04;;;;;;;87.35;59.03;;;256.90;2252.80;;;;;;5072279;28;20029;-55
2020/12/31 05:32:33;;;;;;;74.15;51.97;;;256.90;2252.80;;;;;;5072648;28;20021;-55
2020/12/31 05:34:59;;;;;;;112.15;86.28;;;281.60;2278.40;;;;;;5072561;28;20036;-54
2020/12/31 05:37:27;;;;;;;90.07;69.90;;;256.90;2252.80;;;;;;5071417;28;20090;-55
2020/12/31 05:40:02;;;;;;;80.03;53.87;;;256.70;2252.80;;;;;;5072090;28;20095;-54
2020/12/31 05:42:29;;;;;;;72.65;48.80;;;256.60;2252.80;;;;;;5072293;28;20395;-55
2020/12/31 05:44:59;;;;;;;71.38;49.10;;;256.90;2252.80;;;;;;5072246;28;20024;-54
2020/12/31 05:47:25;;;;;;;60.95;42.28;;;281.60;2278.40;;;;;;5072086;28;20028;-55
2020/12/31 05:49:53;;;;;;;54.40;37.03;;;281.80;2278.40;;;;;;5072594;28;20207;-55
2020/12/31 05:52:51;;;;;;;50.67;33.70;;;281.90;2252.80;;;;;;5071913;28;20025;-55
2020/12/31 05:55:23;;;;;;;47.17;34.17;;;281.70;2278.40;;;;;;5010654;28;20046;-55
2020/12/31 05:57:56;;;;;;;39.15;29.48;;;281.90;2278.40;;;;;;5010537;28;20021;-54
2020/12/31 06:00:26;;;;;;;45.40;31.38;;;281.90;2227.20;;;;;;5010469;28;20037;-55
2020/12/31 06:02:53;;;;;;;45.10;31.20;;;282.00;2252.80;;;;;;5010250;28;20480;-55
2020/12/31 06:05:20;;;;;;;40.83;28.65;;;282.10;2227.20;;;;;;5010243;28;20049;-55
2020/12/31 06:07:50;;;;;;;38.90;25.17;;;282.10;2252.80;;;;;;5010060;28;20122;-55
2020/12/31 06:10:27;;;;;;;35.88;23.48;;;282.00;2227.20;;;;;;5010244;28;20145;-54
2020/12/31 06:13:00;;;;;;;32.75;21.80;;;282.00;2201.60;;;;;;5009944;28;20101;-55
2020/12/31 06:15:31;;;;;;;30.15;22.30;;;282.00;2201.60;;;;;;5010334;28;20026;-55
2020/12/31 06:17:59;;;;;;;35.45;23.17;;;282.10;2201.60;;;;;;5009806;28;20100;-54
2020/12/31 06:20:26;;;;;;;33.83;22.42;;;282.10;2201.60;;;;;;5010495;28;20026;-55
2020/12/31 06:22:57;;;;;;;30.20;20.50;;;282.10;2201.60;;;;;;5009716;28;20022;-55
2020/12/31 06:25:41;;;;;;;28.13;19.63;;;282.00;2201.60;;;;;;5010498;28;20141;-55
2020/12/31 06:28:12;;;;;;;24.80;18.13;;;282.10;2201.60;;;;;;5010755;28;20092;-54
2020/12/31 06:30:44;;;;;;;26.13;19.30;;;282.00;2176.00;;;;;;5031261;28;20029;-54
2020/12/31 06:33:17;;;;;;;24.45;17.73;;;282.10;2201.60;;;;;;5072605;28;20020;-54
2020/12/31 06:35:49;;;;;;;21.33;15.10;;;282.00;2176.00;;;;;;5076016;28;20027;-54
2020/12/31 06:38:26;;;;;;;20.67;14.60;;;282.10;2176.00;;;;;;5075481;28;20043;-54
2020/12/31 06:40:51;;;;;;;20.58;14.65;;;282.00;2176.00;;;;;;5075871;28;20024;-56
2020/12/31 06:43:17;;;;;;;20.00;13.80;;;282.00;2176.00;;;;;;5075126;28;20024;-54
2020/12/31 06:45:49;;;;;;;20.23;13.23;;;282.00;2176.00;;;;;;5075168;28;20051;-55
2020/12/31 06:48:27;;;;;;;19.40;13.32;;;282.10;2176.00;;;;;;5075317;28;20040;-55
2020/12/31 06:51:11;;;;;;;19.98;13.73;;;282.10;2176.00;;;;;;5075561;28;20017;-56
2020/12/31 06:53:47;;;;;;;18.88;13.25;;;282.10;2176.00;;;;;;5075286;28;20082;-62
2020/12/31 06:56:14;;;;;;;23.75;15.68;;;282.10;2176.00;;;;;;5075550;28;20028;-57
2020/12/31 06:58:41;;;;;;;20.00;13.80;;;282.10;2176.00;;;;;;5075310;28;20017;-57
2020/12/31 07:01:28;;;;;;;19.17;14.18;;;282.10;2176.00;;;;;;5075135;28;20056;-57
2020/12/31 07:03:55;;;;;;;20.15;12.55;;;282.20;2176.00;;;;;;5075549;28;20158;-56
2020/12/31 07:06:20;;;;;;;17.75;12.50;;;282.20;2150.40;;;;;;5074712;28;20093;-53
2020/12/31 07:08:47;;;;;;;21.23;13.73;;;282.20;2150.40;;;;;;5075174;28;20104;-57
2020/12/31 07:11:12;;;;;;;16.95;12.30;;;282.30;2150.40;;;;;;5074797;28;20025;-56
2020/12/31 07:13:39;;;;;;;19.65;13.27;;;282.40;2124.80;;;;;;5075099;28;20032;-56
2020/12/31 07:16:05;;;;;;;18.13;13.82;;;282.20;2150.40;;;;;;5074929;28;20031;-58
2020/12/31 07:18:34;;;;;;;17.42;12.50;;;282.30;2150.40;;;;;;5074828;28;20012;-56
2020/12/31 07:21:00;;;;;;;;;;;282.30;2150.40;;;;;;5075382;28;20387;-57
2020/12/31 07:23:38;;;;;;;18.23;12.88;;;282.40;2150.40;;;;;;5074277;28;19908;-55
2020/12/31 07:26:05;;;;;;;15.27;11.55;;;282.40;2124.80;;;;;;5074776;28;20025;-55
2020/12/31 07:28:31;;;;;;;19.27;13.25;;;282.40;2124.80;;;;;;5074912;28;20036;-55
2020/12/31 07:30:57;;;;;;;12.90;10.43;;;282.50;2124.80;;;;;;5074768;28;20040;-57
2020/12/31 07:33:35;;;;;;;18.13;10.57;;;282.50;2099.20;;;;;;5074582;28;20474;-55
2020/12/31 07:36:13;;;;;;;13.63;11.27;;;282.50;2099.20;;;;;;5074556;28;20051;-56
2020/12/31 07:38:40;;;;;;;14.90;11.15;;;307.20;2124.80;;;;;;5072621;28;20493;-56
2020/12/31 07:41:11;;;;;;;13.43;10.73;;;307.20;2124.80;;;;;;5074519;28;20056;-55
2020/12/31 07:43:37;;;;;;;13.15;10.23;;;307.20;2124.80;;;;;;5074495;28;20029;-54
2020/12/31 07:46:03;;;;;;;13.05;10.77;;;307.20;2099.20;;;;;;5074559;28;20029;-54
2020/12/31 07:48:30;;;;;;;14.13;11.23;;;307.20;2099.20;;;;;;5073932;28;20048;-55
2020/12/31 07:50:58;;;;;;;17.85;11.80;;;307.20;2124.80;;;;;;5074316;28;20099;-55
2020/12/31 07:53:24;;;;;;;15.95;12.00;;;307.30;2099.20;;;;;;5074132;28;20575;-56
2020/12/31 07:55:52;;;;;;;18.17;12.88;;;307.40;2099.20;;;;;;5074676;28;20057;-58
2020/12/31 07:58:20;;;;;;;21.27;14.20;;;307.40;2099.20;;;;;;5074638;28;20032;-55
2020/12/31 08:00:59;;;;;;;19.05;13.20;;;307.50;2073.60;;;;;;5073861;28;20020;-55
2020/12/31 08:03:25;;;;;;;18.35;12.68;;;307.60;2099.20;;;;;;5073724;28;20070;-55
2020/12/31 08:06:07;;;;;;;19.23;13.38;;;307.60;2073.60;;;;;;5073863;28;20421;-56
2020/12/31 08:08:34;;;;;;;15.60;11.32;;;307.60;2073.60;;;;;;5073882;28;20036;-54
2020/12/31 08:11:06;;;;;;;18.80;12.43;;;307.70;2048.00;;;;;;5073772;28;20093;-54
2020/12/31 08:13:32;;;;;;;16.92;12.02;;;307.70;2048.00;;;;;;5073624;28;20507;-56
2020/12/31 08:15:58;;;;;;;13.25;11.10;;;307.70;2048.00;;;;;;5073866;28;20103;-55
2020/12/31 08:18:25;;;;;;;18.00;12.23;;;307.60;2022.40;;;;;;5073617;28;20029;-55
2020/12/31 08:20:53;;;;;;;17.35;12.90;;;307.80;2048.00;;;;;;5073724;28;20043;-55
2020/12/31 08:23:33;;;;;;;18.65;12.88;;;307.90;1996.80;;;;;;5073502;28;20112;-55
2020/12/31 08:26:00;;;;;;;17.77;12.85;;;308.00;1996.80;;;;;;5073720;28;20066;-55
2020/12/31 08:28:27;;;;;;;15.05;11.77;;;308.10;1996.80;;;;;;5073624;28;20041;-55
2020/12/31 08:30:53;;;;;;;17.77;10.52;;;332.80;2022.40;;;;;;5073499;28;20017;-56
2020/12/31 08:33:25;;;;;;;17.05;12.07;;;332.80;1996.80;;;;;;5073189;28;20040;-57
2020/12/31 08:35:52;;;;;;;19.77;12.57;;;332.90;1996.80;;;;;;5055762;28;20029;-55
2020/12/31 08:38:22;;;;;;;15.95;12.80;;;333.00;1996.80;;;;;;5073294;28;20103;-57
2020/12/31 08:41:01;;;;;;;16.77;12.32;;;333.10;1996.80;;;;;;5073273;28;20107;-55
2020/12/31 08:43:31;;;;;;;16.05;12.55;;;333.20;1971.20;;;;;;5073211;28;20016;-55
2020/12/31 08:45:57;;;;;;;18.45;13.38;;;333.20;1996.80;;;;;;5073202;28;20059;-53
2020/12/31 08:48:31;;;;;;;17.42;13.25;;;333.20;1996.80;;;;;;5072955;28;20033;-55
2020/12/31 08:51:07;;;;;;;20.83;13.93;;;333.30;1971.20;;;;;;5072570;28;20021;-56
2020/12/31 08:53:52;;;;;;;18.60;13.38;;;333.10;1971.20;;;;;;5073118;28;20103;-55
2020/12/31 08:56:19;;;;;;;19.35;14.68;;;333.00;1971.20;;;;;;5073356;28;20082;-53
2020/12/31 08:58:45;;;;;;;33.00;23.85;;;332.80;2022.40;;;;;;5072877;28;20032;-57
2020/12/31 09:01:24;;;;;;;41.40;30.65;;;332.80;2048.00;;;;;;5073043;28;20020;-55
2020/12/31 09:03:51;;;;;;;44.88;31.35;;;332.90;2022.40;;;;;;5054997;28;20066;-57
2020/12/31 09:06:26;;;;;;;41.90;32.03;;;332.80;2022.40;;;;;;5072880;28;20094;-56
2020/12/31 09:08:52;;;;;;;42.42;31.85;;;332.80;2048.00;;;;;;5073297;28;20032;-55
2020/12/31 09:11:28;;;;;;;42.65;32.15;;;308.10;2022.40;;;;;;5072882;28;20020;-57
2020/12/31 09:14:05;;;;;;;43.70;32.20;;;332.90;2048.00;;;;;;5072904;28;20028;-56
2020/12/31 09:16:33;;;;;;;52.75;35.92;;;332.90;2048.00;;;;;;5073018;28;20028;-57
2020/12/31 09:19:01;;;;;;;55.85;39.20;;;332.80;2022.40;;;;;;5072407;28;20028;-56
2020/12/31 09:21:29;;;;;;;58.83;38.30;;;332.90;1996.80;;;;;;5072481;28;20044;-56
2020/12/31 09:23:55;;;;;;;56.92;37.65;;;332.80;2022.40;;;;;;5072755;28;20036;-56
2020/12/31 09:26:25;;;;;;;61.45;38.35;;;332.80;2022.40;;;;;;5072622;28;20017;-54
2020/12/31 09:28:51;;;;;;;72.13;43.90;;;332.80;2022.40;;;;;;5072622;28;20024;-54
2020/12/31 09:31:22;;;;;;;78.78;44.28;;;308.10;1996.80;;;;;;5072309;28;20074;-55
2020/12/31 09:33:48;;;;;;;68.97;43.40;;;308.00;2022.40;;;;;;5072609;28;20077;-55
2020/12/31 09:36:24;;;;;;;72.25;40.92;;;308.00;2022.40;;;;;;5072857;28;20013;-56
2020/12/31 09:38:51;;;;;;;73.95;43.10;;;307.80;1996.80;;;;;;5072800;28;20052;-56
2020/12/31 09:41:17;;;;;;;83.93;47.15;;;307.70;2048.00;;;;;;5070063;28;20029;-55
2020/12/31 09:43:43;;;;;;;79.20;44.72;;;307.60;2048.00;;;;;;5072378;28;20016;-57
2020/12/31 09:46:08;;;;;;;85.70;46.88;;;307.50;2073.60;;;;;;5072182;28;20028;-57
2020/12/31 09:48:35;;;;;;;71.13;41.50;;;307.60;2073.60;;;;;;5072206;28;20036;-56
2020/12/31 09:51:00;;;;;;;74.53;40.22;;;307.60;2048.00;;;;;;5072448;28;20016;-56
2020/12/31 09:53:26;;;;;;;74.25;41.47;;;307.60;2048.00;;;;;;5072096;28;20046;-56
2020/12/31 09:55:52;;;;;;;72.18;41.63;;;307.40;2073.60;;;;;;5072559;28;20032;-57
2020/12/31 09:58:17;;;;;;;74.97;41.10;;;307.30;2099.20;;;;;;5072071;28;20435;-57
2020/12/31 10:00:43;;;;;;;74.57;38.55;;;307.30;2073.60;;;;;;5072802;28;20020;-53
2020/12/31 10:03:09;;;;;;;71.03;39.30;;;282.50;2073.60;;;;;;5074559;28;20032;-55
2020/12/31 10:05:34;;;;;;;75.93;40.67;;;307.20;2124.80;;;;;;5076336;28;20036;-56
2020/12/31 10:08:00;;;;;;;73.47;37.15;;;282.40;2099.20;;;;;;5076141;28;20123;-55
2020/12/31 10:10:26;;;;;;;70.38;35.70;;;282.40;2099.20;;;;;;5076342;28;20028;-55
2020/12/31 10:12:51;;;;;;;70.95;37.83;;;282.40;2073.60;;;;;;5076145;28;20028;-56
2020/12/31 10:15:17;;;;;;;70.63;38.42;;;282.30;2099.20;;;;;;5076025;28;20032;-56
2020/12/31 10:17:43;;;;;;;65.05;34.08;;;282.30;2099.20;;;;;;5076272;28;20033;-55
2020/12/31 10:20:08;;;;;;;69.22;36.47;;;282.20;2124.80;;;;;;5076242;28;20035;-57
2020/12/31 10:22:34;;;;;;;64.45;35.42;;;282.30;2099.20;;;;;;5076065;28;20028;-55
2020/12/31 10:25:00;;;;;;;73.55;39.13;;;282.30;2073.60;;;;;;5075615;28;20386;-55
2020/12/31 10:27:25;;;;;;;67.55;37.53;;;282.50;2073.60;;;;;;5075749;28;20406;-55
2020/12/31 10:29:52;;;;;;;73.28;37.78;;;307.20;2099.20;;;;;;5076062;28;20467;-55
2020/12/31 10:32:18;;;;;;;70.93;38.78;;;307.20;2073.60;;;;;;5075821;28;20056;-57
2020/12/31 10:34:44;;;;;;;64.70;34.47;;;307.30;2073.60;;;;;;5076164;28;20536;-54
2020/12/31 10:37:09;;;;;;;66.13;35.20;;;307.50;2048.00;;;;;;5075483;28;20028;-56
2020/12/31 10:39:35;;;;;;;65.07;34.92;;;307.40;2048.00;;;;;;5075799;28;20021;-55
2020/12/31 10:42:01;;;;;;;64.22;35.25;;;307.60;2022.40;;;;;;5075451;28;20035;-56
2020/12/31 10:44:27;;;;;;;64.22;33.80;;;307.70;2022.40;;;;;;5075487;28;20366;-56
2020/12/31 10:46:55;;;;;;;66.93;35.50;;;307.70;2022.40;;;;;;5075338;28;20066;-55
2020/12/31 10:49:23;;;;;;;63.25;35.70;;;307.70;2022.40;;;;;;5075224;28;20025;-55
2020/12/31 10:51:49;;;;;;;68.40;36.95;;;307.80;2022.40;;;;;;5075432;28;20028;-55
2020/12/31 10:54:14;;;;;;;60.33;34.10;;;307.90;1996.80;;;;;;5075825;28;20367;-55
2020/12/31 10:56:40;;;;;;;63.03;35.88;;;308.10;1971.20;;;;;;5075066;28;20029;-56
2020/12/31 10:59:06;;;;;;;67.22;38.30;;;308.00;1971.20;;;;;;5075531;28;20017;-56
2020/12/31 11:01:32;;;;;;;68.50;36.13;;;308.10;1996.80;;;;;;5075090;28;20386;-55
2020/12/31 11:03:58;;;;;;;61.95;35.88;;;307.80;1996.80;;;;;;5075401;28;20103;-55
2020/12/31 11:06:25;;;;;;;61.75;33.53;;;307.80;1996.80;;;;;;5074643;28;20132;-55
2020/12/31 11:08:52;;;;;;;63.78;37.72;;;307.80;2022.40;;;;;;5075473;28;20462;-56
2020/12/31 11:11:20;;;;;;;63.00;35.75;;;307.80;2022.40;;;;;;5075005;28;20017;-57
2020/12/31 11:13:46;;;;;;;61.33;34.97;;;307.80;2022.40;;;;;;5074331;28;20081;-55
2020/12/31 11:16:12;;;;;;;58.55;33.00;;;308.00;1996.80;;;;;;5074571;28;20107;-55
2020/12/31 11:18:39;;;;;;;52.95;28.50;;;308.00;1996.80;;;;;;5073546;28;20033;-57
2020/12/31 11:21:05;;;;;;;52.25;31.25;;;308.00;1971.20;;;;;;5074637;28;20054;-56
2020/12/31 11:23:30;;;;;;;58.33;33.70;;;308.00;1971.20;;;;;;5073952;28;20482;-55
2020/12/31 11:25:56;;;;;;;53.63;32.50;;;308.00;1996.80;;;;;;5074372;28;20029;-55
2020/12/31 11:28:21;;;;;;;57.17;34.35;;;307.90;1996.80;;;;;;5073999;28;20103;-56
2020/12/31 11:30:48;;;;;;;53.08;33.00;;;308.00;1996.80;;;;;;5074312;28;20378;-55
2020/12/31 11:33:13;;;;;;;56.13;32.70;;;308.10;1971.20;;;;;;5073883;28;20490;-55
2020/12/31 11:35:39;;;;;;;54.78;32.03;;;332.80;2022.40;;;;;;5074034;28;20008;-56
2020/12/31 11:38:04;;;;;;;52.78;33.55;;;332.80;1971.20;;;;;;5073884;28;20036;-54
2020/12/31 11:40:30;;;;;;;59.08;33.63;;;332.80;1996.80;;;;;;5074368;28;20029;-56
2020/12/31 11:42:56;;;;;;;61.50;33.92;;;308.10;1971.20;;;;;;5073495;28;20047;-55
2020/12/31 11:45:21;;;;;;;55.40;34.58;;;307.90;1996.80;;;;;;5073884;28;20020;-56
2020/12/31 11:47:47;;;;;;;66.57;36.35;;;307.80;2022.40;;;;;;5073406;28;20032;-55
2020/12/31 11:50:13;;;;;;;64.65;35.75;;;307.70;1996.80;;;;;;5073624;28;20017;-57
2020/12/31 11:52:39;;;;;;;52.83;32.25;;;307.80;2022.40;;;;;;5073225;28;20024;-55
2020/12/31 11:55:05;;;;;;;53.75;31.73;;;307.80;1996.80;;;;;;5074099;28;20051;-55
2020/12/31 11:57:31;;;;;;;53.42;32.60;;;307.70;1996.80;;;;;;5073539;28;20017;-57
2020/12/31 11:59:56;;;;;;;58.58;33.13;;;307.30;2048.00;;;;;;5073464;28;20028;-57
2020/12/31 12:02:22;;;;;;;58.90;34.28;;;307.30;2048.00;;;;;;5055311;28;20463;-55